sensor_id;sensor_type;location;lat;lon;timestamp;temperature;humidity
60309;DHT22;50313;52.894;6.492;2022-07-23T00:00:10;13.20;99.90
60309;DHT22;50313;52.894;6.492;2022-07-23T00:02:36;13.10;99.90
60309;DHT22;50313;52.894;6.492;2022-07-23T00:05:01;13.00;99.90
60309;DHT22;50313;52.894;6.492;2022-07-23T00:07:27;13.00;99.90
60309;DHT22;50313;52.894;6.492;2022-07-23T00:09:53;12.90;99.90
60309;DHT22;50313;52.894;6.492;2022-07-23T00:12:20;12.90;99.90
60309;DHT22;50313;52.894;6.492;2022-07-23T00:14:46;12.90;99.90
60309;DHT22;50313;52.894;6.492;2022-07-23T00:17:11;12.80;99.90
60309;DHT22;50313;52.894;6.492;2022-07-23T00:19:37;12.80;99.90
60309;DHT22;50313;52.894;6.492;2022-07-23T00:22:03;12.80;99.90
60309;DHT22;50313;52.894;6.492;2022-07-23T00:24:29;12.80;99.90
60309;DHT22;50313;52.894;6.492;2022-07-23T00:26:54;12.70;99.90
60309;DHT22;50313;52.894;6.492;2022-07-23T00:29:20;12.70;99.90
60309;DHT22;50313;52.894;6.492;2022-07-23T00:31:46;12.60;99.90
60309;DHT22;50313;52.894;6.492;2022-07-23T00:34:11;12.60;99.90
60309;DHT22;50313;52.894;6.492;2022-07-23T00:36:37;12.50;99.90
60309;DHT22;50313;52.894;6.492;2022-07-23T00:39:03;12.50;99.90
60309;DHT22;50313;52.894;6.492;2022-07-23T00:41:29;12.40;99.90
60309;DHT22;50313;52.894;6.492;2022-07-23T00:43:55;12.40;99.90
60309;DHT22;50313;52.894;6.492;2022-07-23T00:46:22;12.30;99.90
60309;DHT22;50313;52.894;6.492;2022-07-23T00:48:48;12.30;99.90
60309;DHT22;50313;52.894;6.492;2022-07-23T00:51:18;12.20;99.90
60309;DHT22;50313;52.894;6.492;2022-07-23T00:53:44;12.20;99.90
60309;DHT22;50313;52.894;6.492;2022-07-23T00:56:10;12.10;99.90
60309;DHT22;50313;52.894;6.492;2022-07-23T00:58:36;12.10;99.90
60309;DHT22;50313;52.894;6.492;2022-07-23T01:01:04;12.00;99.90
60309;DHT22;50313;52.894;6.492;2022-07-23T01:03:30;12.00;99.90
60309;DHT22;50313;52.894;6.492;2022-07-23T01:05:57;12.00;99.90
60309;DHT22;50313;52.894;6.492;2022-07-23T01:08:23;12.00;99.90
60309;DHT22;50313;52.894;6.492;2022-07-23T01:10:49;12.00;99.90
60309;DHT22;50313;52.894;6.492;2022-07-23T01:13:16;11.90;99.90
60309;DHT22;50313;52.894;6.492;2022-07-23T01:15:42;11.80;99.90
60309;DHT22;50313;52.894;6.492;2022-07-23T01:18:08;11.80;99.90
60309;DHT22;50313;52.894;6.492;2022-07-23T01:20:34;11.80;99.90
60309;DHT22;50313;52.894;6.492;2022-07-23T01:23:00;11.70;99.90
60309;DHT22;50313;52.894;6.492;2022-07-23T01:25:26;11.70;99.90
60309;DHT22;50313;52.894;6.492;2022-07-23T01:27:53;11.70;99.90
60309;DHT22;50313;52.894;6.492;2022-07-23T01:30:19;11.70;99.90
60309;DHT22;50313;52.894;6.492;2022-07-23T01:32:44;11.70;99.90
60309;DHT22;50313;52.894;6.492;2022-07-23T01:35:10;11.60;99.90
60309;DHT22;50313;52.894;6.492;2022-07-23T01:37:37;11.60;99.90
60309;DHT22;50313;52.894;6.492;2022-07-23T01:40:03;11.60;99.90
60309;DHT22;50313;52.894;6.492;2022-07-23T01:42:30;11.60;99.90
60309;DHT22;50313;52.894;6.492;2022-07-23T01:44:55;11.60;99.90
60309;DHT22;50313;52.894;6.492;2022-07-23T01:47:21;11.50;99.90
60309;DHT22;50313;52.894;6.492;2022-07-23T01:49:47;11.50;99.90
60309;DHT22;50313;52.894;6.492;2022-07-23T01:52:12;11.50;99.90
60309;DHT22;50313;52.894;6.492;2022-07-23T01:54:39;11.40;99.90
60309;DHT22;50313;52.894;6.492;2022-07-23T01:57:05;11.40;99.90
60309;DHT22;50313;52.894;6.492;2022-07-23T01:59:32;11.40;99.90
60309;DHT22;50313;52.894;6.492;2022-07-23T02:01:58;11.30;99.90
60309;DHT22;50313;52.894;6.492;2022-07-23T02:04:24;11.30;99.90
60309;DHT22;50313;52.894;6.492;2022-07-23T02:06:51;11.30;99.90
60309;DHT22;50313;52.894;6.492;2022-07-23T02:09:17;11.30;99.90
60309;DHT22;50313;52.894;6.492;2022-07-23T02:11:43;11.30;99.90
60309;DHT22;50313;52.894;6.492;2022-07-23T02:14:09;11.30;99.90
60309;DHT22;50313;52.894;6.492;2022-07-23T02:16:35;11.20;99.90
60309;DHT22;50313;52.894;6.492;2022-07-23T02:19:02;11.20;99.90
60309;DHT22;50313;52.894;6.492;2022-07-23T02:21:27;11.20;99.90
60309;DHT22;50313;52.894;6.492;2022-07-23T02:23:53;11.20;99.90
60309;DHT22;50313;52.894;6.492;2022-07-23T02:26:19;11.20;99.90
60309;DHT22;50313;52.894;6.492;2022-07-23T02:28:45;11.20;99.90
60309;DHT22;50313;52.894;6.492;2022-07-23T02:31:10;11.20;99.90
60309;DHT22;50313;52.894;6.492;2022-07-23T02:33:36;11.10;99.90
60309;DHT22;50313;52.894;6.492;2022-07-23T02:36:02;11.10;99.90
60309;DHT22;50313;52.894;6.492;2022-07-23T02:38:28;11.20;99.90
60309;DHT22;50313;52.894;6.492;2022-07-23T02:40:54;11.10;99.90
60309;DHT22;50313;52.894;6.492;2022-07-23T02:43:19;11.10;99.90
60309;DHT22;50313;52.894;6.492;2022-07-23T02:45:45;11.10;99.90
60309;DHT22;50313;52.894;6.492;2022-07-23T02:48:11;11.10;99.90
60309;DHT22;50313;52.894;6.492;2022-07-23T02:50:38;11.10;99.90
60309;DHT22;50313;52.894;6.492;2022-07-23T02:53:04;11.10;99.90
60309;DHT22;50313;52.894;6.492;2022-07-23T02:55:30;11.00;99.90
60309;DHT22;50313;52.894;6.492;2022-07-23T02:57:56;11.00;99.90
60309;DHT22;50313;52.894;6.492;2022-07-23T03:00:22;11.00;99.90
60309;DHT22;50313;52.894;6.492;2022-07-23T03:02:48;10.90;99.90
60309;DHT22;50313;52.894;6.492;2022-07-23T03:05:14;10.80;99.90
60309;DHT22;50313;52.894;6.492;2022-07-23T03:07:40;10.80;99.90
60309;DHT22;50313;52.894;6.492;2022-07-23T03:10:06;10.80;99.90
60309;DHT22;50313;52.894;6.492;2022-07-23T03:12:32;10.80;99.90
60309;DHT22;50313;52.894;6.492;2022-07-23T03:14:57;10.70;99.90
60309;DHT22;50313;52.894;6.492;2022-07-23T03:17:23;10.70;99.90
60309;DHT22;50313;52.894;6.492;2022-07-23T03:19:49;10.70;99.90
60309;DHT22;50313;52.894;6.492;2022-07-23T03:22:15;10.60;99.90
60309;DHT22;50313;52.894;6.492;2022-07-23T03:24:40;10.50;99.90
60309;DHT22;50313;52.894;6.492;2022-07-23T03:27:23;10.50;99.90
60309;DHT22;50313;52.894;6.492;2022-07-23T03:29:49;10.50;99.90
60309;DHT22;50313;52.894;6.492;2022-07-23T03:32:15;10.50;99.90
60309;DHT22;50313;52.894;6.492;2022-07-23T03:34:41;10.50;99.90
60309;DHT22;50313;52.894;6.492;2022-07-23T03:37:07;10.50;99.90
60309;DHT22;50313;52.894;6.492;2022-07-23T03:39:32;10.50;99.90
60309;DHT22;50313;52.894;6.492;2022-07-23T03:41:58;10.50;99.90
60309;DHT22;50313;52.894;6.492;2022-07-23T03:44:24;10.40;99.90
60309;DHT22;50313;52.894;6.492;2022-07-23T03:46:49;10.40;99.90
60309;DHT22;50313;52.894;6.492;2022-07-23T03:49:15;10.40;99.90
60309;DHT22;50313;52.894;6.492;2022-07-23T03:51:41;10.30;99.90
60309;DHT22;50313;52.894;6.492;2022-07-23T03:54:07;10.30;99.90
60309;DHT22;50313;52.894;6.492;2022-07-23T03:56:33;10.40;99.90
60309;DHT22;50313;52.894;6.492;2022-07-23T03:58:58;10.30;99.90
60309;DHT22;50313;52.894;6.492;2022-07-23T04:01:24;10.30;99.90
60309;DHT22;50313;52.894;6.492;2022-07-23T04:03:50;10.30;99.90
60309;DHT22;50313;52.894;6.492;2022-07-23T04:06:15;10.30;99.90
60309;DHT22;50313;52.894;6.492;2022-07-23T04:08:41;10.30;99.90
60309;DHT22;50313;52.894;6.492;2022-07-23T04:11:07;10.40;99.90
60309;DHT22;50313;52.894;6.492;2022-07-23T04:13:32;10.40;99.90
60309;DHT22;50313;52.894;6.492;2022-07-23T04:15:58;10.40;99.90
60309;DHT22;50313;52.894;6.492;2022-07-23T04:18:24;10.50;99.90
60309;DHT22;50313;52.894;6.492;2022-07-23T04:20:53;10.50;99.90
60309;DHT22;50313;52.894;6.492;2022-07-23T04:23:19;10.50;99.90
60309;DHT22;50313;52.894;6.492;2022-07-23T04:25:44;10.50;99.90
60309;DHT22;50313;52.894;6.492;2022-07-23T04:28:10;10.60;99.90
60309;DHT22;50313;52.894;6.492;2022-07-23T04:30:36;10.50;99.90
60309;DHT22;50313;52.894;6.492;2022-07-23T04:33:01;10.60;99.90
60309;DHT22;50313;52.894;6.492;2022-07-23T04:35:31;10.60;99.90
60309;DHT22;50313;52.894;6.492;2022-07-23T04:37:56;10.70;99.90
60309;DHT22;50313;52.894;6.492;2022-07-23T04:40:22;10.70;99.90
60309;DHT22;50313;52.894;6.492;2022-07-23T04:42:48;10.80;99.90
60309;DHT22;50313;52.894;6.492;2022-07-23T04:45:13;10.80;99.90
60309;DHT22;50313;52.894;6.492;2022-07-23T04:47:39;10.80;99.90
60309;DHT22;50313;52.894;6.492;2022-07-23T04:50:05;10.90;99.90
60309;DHT22;50313;52.894;6.492;2022-07-23T04:52:31;10.90;99.90
60309;DHT22;50313;52.894;6.492;2022-07-23T04:54:57;11.10;99.90
60309;DHT22;50313;52.894;6.492;2022-07-23T04:57:22;11.10;99.90
60309;DHT22;50313;52.894;6.492;2022-07-23T04:59:48;11.10;99.90
60309;DHT22;50313;52.894;6.492;2022-07-23T05:02:14;11.20;99.90
60309;DHT22;50313;52.894;6.492;2022-07-23T05:04:39;11.20;99.90
60309;DHT22;50313;52.894;6.492;2022-07-23T05:07:05;11.30;99.90
60309;DHT22;50313;52.894;6.492;2022-07-23T05:09:31;11.30;99.90
60309;DHT22;50313;52.894;6.492;2022-07-23T05:11:57;11.40;99.90
60309;DHT22;50313;52.894;6.492;2022-07-23T05:14:23;11.50;99.90
60309;DHT22;50313;52.894;6.492;2022-07-23T05:16:49;11.50;99.90
60309;DHT22;50313;52.894;6.492;2022-07-23T05:19:14;11.60;99.90
60309;DHT22;50313;52.894;6.492;2022-07-23T05:21:40;11.70;99.90
60309;DHT22;50313;52.894;6.492;2022-07-23T05:24:06;11.80;99.90
60309;DHT22;50313;52.894;6.492;2022-07-23T05:26:32;11.90;99.90
60309;DHT22;50313;52.894;6.492;2022-07-23T05:28:57;12.00;99.90
60309;DHT22;50313;52.894;6.492;2022-07-23T05:31:23;12.10;99.90
60309;DHT22;50313;52.894;6.492;2022-07-23T05:33:49;12.30;99.90
60309;DHT22;50313;52.894;6.492;2022-07-23T05:36:14;12.30;99.90
60309;DHT22;50313;52.894;6.492;2022-07-23T05:38:40;12.40;99.90
60309;DHT22;50313;52.894;6.492;2022-07-23T05:41:06;12.60;99.90
60309;DHT22;50313;52.894;6.492;2022-07-23T05:43:31;12.70;99.90
60309;DHT22;50313;52.894;6.492;2022-07-23T05:45:57;12.80;99.90
60309;DHT22;50313;52.894;6.492;2022-07-23T05:48:23;13.00;99.90
60309;DHT22;50313;52.894;6.492;2022-07-23T05:50:48;13.10;99.90
60309;DHT22;50313;52.894;6.492;2022-07-23T05:53:14;13.10;99.90
60309;DHT22;50313;52.894;6.492;2022-07-23T05:55:40;13.30;99.90
60309;DHT22;50313;52.894;6.492;2022-07-23T05:58:06;13.50;99.90
60309;DHT22;50313;52.894;6.492;2022-07-23T06:00:32;13.60;99.90
60309;DHT22;50313;52.894;6.492;2022-07-23T06:02:58;13.70;99.90
60309;DHT22;50313;52.894;6.492;2022-07-23T06:05:24;13.80;99.90
60309;DHT22;50313;52.894;6.492;2022-07-23T06:07:49;14.00;99.90
60309;DHT22;50313;52.894;6.492;2022-07-23T06:10:16;14.00;99.90
60309;DHT22;50313;52.894;6.492;2022-07-23T06:12:42;14.20;99.90
60309;DHT22;50313;52.894;6.492;2022-07-23T06:15:08;14.30;99.90
60309;DHT22;50313;52.894;6.492;2022-07-23T06:17:34;14.40;99.90
60309;DHT22;50313;52.894;6.492;2022-07-23T06:20:00;14.50;99.90
60309;DHT22;50313;52.894;6.492;2022-07-23T06:22:26;14.60;99.90
60309;DHT22;50313;52.894;6.492;2022-07-23T06:24:51;14.70;99.90
60309;DHT22;50313;52.894;6.492;2022-07-23T06:27:18;14.80;99.90
60309;DHT22;50313;52.894;6.492;2022-07-23T06:29:43;14.90;99.90
60309;DHT22;50313;52.894;6.492;2022-07-23T06:32:09;15.10;99.90
60309;DHT22;50313;52.894;6.492;2022-07-23T06:34:35;15.10;99.90
60309;DHT22;50313;52.894;6.492;2022-07-23T06:37:01;15.10;99.90
60309;DHT22;50313;52.894;6.492;2022-07-23T06:39:27;15.30;99.90
60309;DHT22;50313;52.894;6.492;2022-07-23T06:41:52;15.40;99.90
60309;DHT22;50313;52.894;6.492;2022-07-23T06:44:18;15.50;99.90
60309;DHT22;50313;52.894;6.492;2022-07-23T06:46:44;15.70;99.90
60309;DHT22;50313;52.894;6.492;2022-07-23T06:49:10;15.70;99.90
60309;DHT22;50313;52.894;6.492;2022-07-23T06:51:35;15.80;99.90
60309;DHT22;50313;52.894;6.492;2022-07-23T06:54:02;16.00;99.90
60309;DHT22;50313;52.894;6.492;2022-07-23T06:56:28;16.10;99.90
60309;DHT22;50313;52.894;6.492;2022-07-23T06:58:54;16.30;99.90
60309;DHT22;50313;52.894;6.492;2022-07-23T07:01:19;16.30;99.90
60309;DHT22;50313;52.894;6.492;2022-07-23T07:03:45;16.40;99.90
60309;DHT22;50313;52.894;6.492;2022-07-23T07:06:12;16.50;99.90
60309;DHT22;50313;52.894;6.492;2022-07-23T07:08:37;16.50;99.90
60309;DHT22;50313;52.894;6.492;2022-07-23T07:11:03;16.70;99.90
60309;DHT22;50313;52.894;6.492;2022-07-23T07:13:29;16.80;99.90
60309;DHT22;50313;52.894;6.492;2022-07-23T07:15:55;16.90;99.90
60309;DHT22;50313;52.894;6.492;2022-07-23T07:18:21;17.00;99.90
60309;DHT22;50313;52.894;6.492;2022-07-23T07:20:46;17.00;99.90
60309;DHT22;50313;52.894;6.492;2022-07-23T07:23:12;17.10;99.90
60309;DHT22;50313;52.894;6.492;2022-07-23T07:25:38;17.20;99.90
60309;DHT22;50313;52.894;6.492;2022-07-23T07:28:04;17.30;99.90
60309;DHT22;50313;52.894;6.492;2022-07-23T07:30:30;17.40;99.90
60309;DHT22;50313;52.894;6.492;2022-07-23T07:32:55;17.60;99.90
60309;DHT22;50313;52.894;6.492;2022-07-23T07:35:21;17.60;99.90
60309;DHT22;50313;52.894;6.492;2022-07-23T07:37:47;17.60;99.90
60309;DHT22;50313;52.894;6.492;2022-07-23T07:40:12;17.60;99.90
60309;DHT22;50313;52.894;6.492;2022-07-23T07:42:49;17.60;99.90
60309;DHT22;50313;52.894;6.492;2022-07-23T07:45:15;17.40;99.90
60309;DHT22;50313;52.894;6.492;2022-07-23T07:47:41;17.60;99.90
60309;DHT22;50313;52.894;6.492;2022-07-23T07:50:07;17.90;99.90
60309;DHT22;50313;52.894;6.492;2022-07-23T07:52:34;17.60;99.90
60309;DHT22;50313;52.894;6.492;2022-07-23T07:55:03;17.40;99.90
60309;DHT22;50313;52.894;6.492;2022-07-23T07:57:29;17.30;99.90
60309;DHT22;50313;52.894;6.492;2022-07-23T07:59:54;17.10;99.90
60309;DHT22;50313;52.894;6.492;2022-07-23T08:02:20;17.20;99.90
60309;DHT22;50313;52.894;6.492;2022-07-23T08:04:46;17.40;99.90
60309;DHT22;50313;52.894;6.492;2022-07-23T08:07:12;17.70;99.90
60309;DHT22;50313;52.894;6.492;2022-07-23T08:09:38;17.60;99.90
60309;DHT22;50313;52.894;6.492;2022-07-23T08:12:04;17.80;99.90
60309;DHT22;50313;52.894;6.492;2022-07-23T08:14:29;18.10;99.90
60309;DHT22;50313;52.894;6.492;2022-07-23T08:16:55;18.40;99.90
60309;DHT22;50313;52.894;6.492;2022-07-23T08:19:21;18.50;99.90
60309;DHT22;50313;52.894;6.492;2022-07-23T08:21:47;18.60;99.90
60309;DHT22;50313;52.894;6.492;2022-07-23T08:24:12;18.80;99.90
60309;DHT22;50313;52.894;6.492;2022-07-23T08:26:38;18.80;99.90
60309;DHT22;50313;52.894;6.492;2022-07-23T08:29:07;18.90;99.90
60309;DHT22;50313;52.894;6.492;2022-07-23T08:31:33;19.00;99.90
60309;DHT22;50313;52.894;6.492;2022-07-23T08:33:59;19.10;99.90
60309;DHT22;50313;52.894;6.492;2022-07-23T08:36:25;19.30;99.90
60309;DHT22;50313;52.894;6.492;2022-07-23T08:38:58;19.50;99.90
60309;DHT22;50313;52.894;6.492;2022-07-23T08:41:24;19.70;99.90
60309;DHT22;50313;52.894;6.492;2022-07-23T08:43:51;19.50;99.90
60309;DHT22;50313;52.894;6.492;2022-07-23T08:46:18;19.10;99.90
60309;DHT22;50313;52.894;6.492;2022-07-23T08:48:47;19.00;99.90
60309;DHT22;50313;52.894;6.492;2022-07-23T08:51:14;19.40;99.90
60309;DHT22;50313;52.894;6.492;2022-07-23T08:53:41;19.70;99.40
60309;DHT22;50313;52.894;6.492;2022-07-23T08:56:07;20.10;99.90
60309;DHT22;50313;52.894;6.492;2022-07-23T08:58:33;20.40;99.90
60309;DHT22;50313;52.894;6.492;2022-07-23T09:01:00;20.20;99.90
60309;DHT22;50313;52.894;6.492;2022-07-23T09:03:29;20.20;99.90
60309;DHT22;50313;52.894;6.492;2022-07-23T09:05:56;19.90;99.80
60309;DHT22;50313;52.894;6.492;2022-07-23T09:08:42;19.70;99.80
60309;DHT22;50313;52.894;6.492;2022-07-23T09:11:15;19.50;99.00
60309;DHT22;50313;52.894;6.492;2022-07-23T09:13:51;19.70;99.90
60309;DHT22;50313;52.894;6.492;2022-07-23T09:18:53;20.10;98.40
60309;DHT22;50313;52.894;6.492;2022-07-23T09:21:26;19.80;98.00
60309;DHT22;50313;52.894;6.492;2022-07-23T09:23:57;20.20;99.30
60309;DHT22;50313;52.894;6.492;2022-07-23T09:29:04;20.10;99.10
60309;DHT22;50313;52.894;6.492;2022-07-23T09:36:41;20.00;99.10
60309;DHT22;50313;52.894;6.492;2022-07-23T09:39:07;20.10;99.40
60309;DHT22;50313;52.894;6.492;2022-07-23T09:41:42;20.20;99.90
60309;DHT22;50313;52.894;6.492;2022-07-23T09:46:38;20.70;99.40
60309;DHT22;50313;52.894;6.492;2022-07-23T09:49:21;20.70;98.70
60309;DHT22;50313;52.894;6.492;2022-07-23T09:51:59;20.60;99.50
60309;DHT22;50313;52.894;6.492;2022-07-23T09:54:32;20.50;98.10
60309;DHT22;50313;52.894;6.492;2022-07-23T09:57:11;20.40;99.40
60309;DHT22;50313;52.894;6.492;2022-07-23T09:59:41;20.80;99.50
60309;DHT22;50313;52.894;6.492;2022-07-23T10:02:09;20.90;98.60
60309;DHT22;50313;52.894;6.492;2022-07-23T10:04:36;20.90;98.80
60309;DHT22;50313;52.894;6.492;2022-07-23T10:07:04;20.90;99.40
60309;DHT22;50313;52.894;6.492;2022-07-23T10:09:33;20.90;98.00
60309;DHT22;50313;52.894;6.492;2022-07-23T10:12:02;21.10;98.70
60309;DHT22;50313;52.894;6.492;2022-07-23T10:14:40;20.80;98.30
60309;DHT22;50313;52.894;6.492;2022-07-23T10:17:07;20.70;98.90
60309;DHT22;50313;52.894;6.492;2022-07-23T10:19:33;20.60;98.60
60309;DHT22;50313;52.894;6.492;2022-07-23T10:22:04;20.90;97.80
60309;DHT22;50313;52.894;6.492;2022-07-23T10:24:52;21.10;97.80
60309;DHT22;50313;52.894;6.492;2022-07-23T10:39:04;21.20;98.10
60309;DHT22;50313;52.894;6.492;2022-07-23T10:41:36;20.90;97.00
60309;DHT22;50313;52.894;6.492;2022-07-23T10:44:11;20.90;97.80
60309;DHT22;50313;52.894;6.492;2022-07-23T10:49:40;21.20;98.20
60309;DHT22;50313;52.894;6.492;2022-07-23T10:52:26;21.50;98.00
60309;DHT22;50313;52.894;6.492;2022-07-23T10:55:38;22.00;98.30
60309;DHT22;50313;52.894;6.492;2022-07-23T10:57:49;22.00;97.10
60309;DHT22;50313;52.894;6.492;2022-07-23T11:00:36;22.10;97.10
60309;DHT22;50313;52.894;6.492;2022-07-23T11:03:05;22.40;97.20
60309;DHT22;50313;52.894;6.492;2022-07-23T11:05:42;21.90;96.20
60309;DHT22;50313;52.894;6.492;2022-07-23T11:10:36;22.10;95.80
60309;DHT22;50313;52.894;6.492;2022-07-23T11:24:05;22.60;97.20
60309;DHT22;50313;52.894;6.492;2022-07-23T11:26:46;22.40;97.00
60309;DHT22;50313;52.894;6.492;2022-07-23T11:37:06;22.60;95.60
60309;DHT22;50313;52.894;6.492;2022-07-23T11:39:33;22.20;96.10
60309;DHT22;50313;52.894;6.492;2022-07-23T11:42:00;22.10;95.90
60309;DHT22;50313;52.894;6.492;2022-07-23T11:44:30;22.00;97.60
60309;DHT22;50313;52.894;6.492;2022-07-23T11:46:57;22.20;97.00
60309;DHT22;50313;52.894;6.492;2022-07-23T11:49:24;21.90;96.50
60309;DHT22;50313;52.894;6.492;2022-07-23T11:52:11;21.80;97.40
60309;DHT22;50313;52.894;6.492;2022-07-23T11:54:55;21.80;96.60
60309;DHT22;50313;52.894;6.492;2022-07-23T11:57:28;21.90;96.30
60309;DHT22;50313;52.894;6.492;2022-07-23T12:00:28;22.10;97.70
60309;DHT22;50313;52.894;6.492;2022-07-23T12:02:48;22.00;97.10
60309;DHT22;50313;52.894;6.492;2022-07-23T12:05:17;22.00;96.80
60309;DHT22;50313;52.894;6.492;2022-07-23T12:07:44;22.10;97.60
60309;DHT22;50313;52.894;6.492;2022-07-23T12:13:08;22.00;97.80
60309;DHT22;50313;52.894;6.492;2022-07-23T12:15:47;22.10;97.00
60309;DHT22;50313;52.894;6.492;2022-07-23T12:18:31;22.00;98.30
60309;DHT22;50313;52.894;6.492;2022-07-23T12:21:03;21.80;97.30
60309;DHT22;50313;52.894;6.492;2022-07-23T12:23:30;21.90;97.40
60309;DHT22;50313;52.894;6.492;2022-07-23T12:26:02;21.90;96.70
60309;DHT22;50313;52.894;6.492;2022-07-23T12:28:32;21.90;98.10
60309;DHT22;50313;52.894;6.492;2022-07-23T12:30:59;22.20;97.50
60309;DHT22;50313;52.894;6.492;2022-07-23T12:33:28;22.30;97.80
60309;DHT22;50313;52.894;6.492;2022-07-23T12:35:59;22.60;97.60
60309;DHT22;50313;52.894;6.492;2022-07-23T12:38:27;22.50;97.60
60309;DHT22;50313;52.894;6.492;2022-07-23T12:40:58;22.50;96.40
60309;DHT22;50313;52.894;6.492;2022-07-23T12:43:32;22.30;97.40
60309;DHT22;50313;52.894;6.492;2022-07-23T12:48:33;22.40;97.10
60309;DHT22;50313;52.894;6.492;2022-07-23T12:51:14;22.90;96.20
60309;DHT22;50313;52.894;6.492;2022-07-23T12:53:48;22.70;96.20
60309;DHT22;50313;52.894;6.492;2022-07-23T12:56:26;23.00;97.30
60309;DHT22;50313;52.894;6.492;2022-07-23T12:58:55;22.90;96.10
60309;DHT22;50313;52.894;6.492;2022-07-23T13:04:11;22.40;96.60
60309;DHT22;50313;52.894;6.492;2022-07-23T13:06:56;22.60;96.80
60309;DHT22;50313;52.894;6.492;2022-07-23T13:09:33;22.90;96.20
60309;DHT22;50313;52.894;6.492;2022-07-23T13:11:59;23.00;97.10
60309;DHT22;50313;52.894;6.492;2022-07-23T13:14:26;22.90;96.40
60309;DHT22;50313;52.894;6.492;2022-07-23T13:16:53;23.00;97.30
60309;DHT22;50313;52.894;6.492;2022-07-23T13:19:19;23.30;97.50
60309;DHT22;50313;52.894;6.492;2022-07-23T13:21:47;23.60;97.40
60309;DHT22;50313;52.894;6.492;2022-07-23T13:24:13;23.30;96.10
60309;DHT22;50313;52.894;6.492;2022-07-23T13:26:39;23.40;96.30
60309;DHT22;50313;52.894;6.492;2022-07-23T13:29:06;23.10;96.70
60309;DHT22;50313;52.894;6.492;2022-07-23T13:31:32;23.00;96.80
60309;DHT22;50313;52.894;6.492;2022-07-23T13:33:58;23.20;96.30
60309;DHT22;50313;52.894;6.492;2022-07-23T13:36:24;23.50;96.40
60309;DHT22;50313;52.894;6.492;2022-07-23T13:38:49;23.70;96.10
60309;DHT22;50313;52.894;6.492;2022-07-23T13:41:17;23.40;95.10
60309;DHT22;50313;52.894;6.492;2022-07-23T13:43:43;23.40;95.20
60309;DHT22;50313;52.894;6.492;2022-07-23T13:46:08;23.50;96.60
60309;DHT22;50313;52.894;6.492;2022-07-23T13:48:34;23.30;95.90
60309;DHT22;50313;52.894;6.492;2022-07-23T13:51:00;23.50;96.50
60309;DHT22;50313;52.894;6.492;2022-07-23T13:53:25;23.60;95.30
60309;DHT22;50313;52.894;6.492;2022-07-23T13:55:52;23.80;95.30
60309;DHT22;50313;52.894;6.492;2022-07-23T13:58:19;24.10;96.30
60309;DHT22;50313;52.894;6.492;2022-07-23T14:00:48;23.70;95.40
60309;DHT22;50313;52.894;6.492;2022-07-23T14:03:16;23.50;95.50
60309;DHT22;50313;52.894;6.492;2022-07-23T14:05:42;23.50;96.00
60309;DHT22;50313;52.894;6.492;2022-07-23T14:08:08;23.90;96.20
60309;DHT22;50313;52.894;6.492;2022-07-23T14:10:34;23.70;94.70
60309;DHT22;50313;52.894;6.492;2022-07-23T14:13:00;23.40;95.30
60309;DHT22;50313;52.894;6.492;2022-07-23T14:15:27;23.00;95.50
60309;DHT22;50313;52.894;6.492;2022-07-23T14:17:54;23.30;95.10
60309;DHT22;50313;52.894;6.492;2022-07-23T14:20:20;23.20;96.20
60309;DHT22;50313;52.894;6.492;2022-07-23T14:22:46;23.30;95.80
60309;DHT22;50313;52.894;6.492;2022-07-23T14:25:13;23.40;95.00
60309;DHT22;50313;52.894;6.492;2022-07-23T14:27:38;23.20;94.90
60309;DHT22;50313;52.894;6.492;2022-07-23T14:30:08;23.10;95.40
60309;DHT22;50313;52.894;6.492;2022-07-23T14:32:35;23.40;96.20
60309;DHT22;50313;52.894;6.492;2022-07-23T14:35:01;23.70;95.50
60309;DHT22;50313;52.894;6.492;2022-07-23T14:37:26;24.00;95.10
60309;DHT22;50313;52.894;6.492;2022-07-23T14:39:52;24.40;95.10
60309;DHT22;50313;52.894;6.492;2022-07-23T14:42:18;24.90;94.50
60309;DHT22;50313;52.894;6.492;2022-07-23T14:44:44;25.40;94.70
60309;DHT22;50313;52.894;6.492;2022-07-23T14:47:10;25.40;93.70
60309;DHT22;50313;52.894;6.492;2022-07-23T14:49:36;25.50;94.00
60309;DHT22;50313;52.894;6.492;2022-07-23T14:52:03;25.40;92.50
60309;DHT22;50313;52.894;6.492;2022-07-23T14:54:29;25.40;91.40
60309;DHT22;50313;52.894;6.492;2022-07-23T14:56:57;25.50;92.20
60309;DHT22;50313;52.894;6.492;2022-07-23T14:59:23;25.20;92.00
60309;DHT22;50313;52.894;6.492;2022-07-23T15:01:49;25.40;91.90
60309;DHT22;50313;52.894;6.492;2022-07-23T15:04:15;25.40;91.40
60309;DHT22;50313;52.894;6.492;2022-07-23T15:06:41;25.70;92.10
60309;DHT22;50313;52.894;6.492;2022-07-23T15:09:07;25.80;92.20
60309;DHT22;50313;52.894;6.492;2022-07-23T15:11:36;25.90;91.00
60309;DHT22;50313;52.894;6.492;2022-07-23T15:14:06;25.90;92.60
60309;DHT22;50313;52.894;6.492;2022-07-23T15:16:33;26.10;91.50
60309;DHT22;50313;52.894;6.492;2022-07-23T15:18:59;26.30;91.40
60309;DHT22;50313;52.894;6.492;2022-07-23T15:21:25;26.70;92.70
60309;DHT22;50313;52.894;6.492;2022-07-23T15:23:51;26.90;90.80
60309;DHT22;50313;52.894;6.492;2022-07-23T15:26:18;26.80;89.70
60309;DHT22;50313;52.894;6.492;2022-07-23T15:28:44;27.30;89.50
60309;DHT22;50313;52.894;6.492;2022-07-23T15:31:10;27.40;90.80
60309;DHT22;50313;52.894;6.492;2022-07-23T15:33:36;27.20;90.00
60309;DHT22;50313;52.894;6.492;2022-07-23T15:36:03;26.90;89.30
60309;DHT22;50313;52.894;6.492;2022-07-23T15:38:29;27.20;90.10
60309;DHT22;50313;52.894;6.492;2022-07-23T15:40:55;27.20;89.10
60309;DHT22;50313;52.894;6.492;2022-07-23T15:43:22;27.40;88.50
60309;DHT22;50313;52.894;6.492;2022-07-23T15:45:48;27.60;88.50
60309;DHT22;50313;52.894;6.492;2022-07-23T15:48:14;27.60;88.40
60309;DHT22;50313;52.894;6.492;2022-07-23T15:50:41;28.00;88.30
60309;DHT22;50313;52.894;6.492;2022-07-23T15:53:06;27.90;88.70
60309;DHT22;50313;52.894;6.492;2022-07-23T15:55:32;27.70;87.90
60309;DHT22;50313;52.894;6.492;2022-07-23T15:57:58;27.40;85.20
60309;DHT22;50313;52.894;6.492;2022-07-23T16:00:24;27.70;86.90
60309;DHT22;50313;52.894;6.492;2022-07-23T16:02:50;28.50;85.50
60309;DHT22;50313;52.894;6.492;2022-07-23T16:05:16;28.50;85.10
60309;DHT22;50313;52.894;6.492;2022-07-23T16:07:58;28.70;83.60
60309;DHT22;50313;52.894;6.492;2022-07-23T16:10:24;28.80;84.40
60309;DHT22;50313;52.894;6.492;2022-07-23T16:12:49;29.20;82.90
60309;DHT22;50313;52.894;6.492;2022-07-23T16:15:15;28.90;83.30
60309;DHT22;50313;52.894;6.492;2022-07-23T16:17:41;28.80;82.50
60309;DHT22;50313;52.894;6.492;2022-07-23T16:20:07;28.40;82.30
60309;DHT22;50313;52.894;6.492;2022-07-23T16:22:34;28.60;83.20
60309;DHT22;50313;52.894;6.492;2022-07-23T16:25:00;29.50;81.50
60309;DHT22;50313;52.894;6.492;2022-07-23T16:27:26;29.20;79.60